createdAt,value
2022-09-21T00:01:07.576Z,47.80
2022-09-21T00:03:35.304Z,47.80
2022-09-21T00:06:04.547Z,47.80
2022-09-21T00:08:32.311Z,47.80
2022-09-21T00:11:00.173Z,47.90
2022-09-21T00:13:29.254Z,47.80
2022-09-21T00:15:57.027Z,47.80
2022-09-21T00:18:24.793Z,47.80
2022-09-21T00:20:53.207Z,47.80
2022-09-21T00:23:21.005Z,47.80
2022-09-21T00:25:48.669Z,47.80
2022-09-21T00:28:16.602Z,47.80
2022-09-21T00:30:45.782Z,47.70
2022-09-21T00:33:13.458Z,47.70
2022-09-21T00:35:41.222Z,47.70
2022-09-21T00:38:08.892Z,47.70
2022-09-21T00:40:36.602Z,47.80
2022-09-21T00:43:14.505Z,47.80
2022-09-21T00:45:42.767Z,47.90
2022-09-21T00:48:11.820Z,47.90
2022-09-21T00:50:39.984Z,47.90
2022-09-21T00:53:07.880Z,48.00
2022-09-21T00:55:37.746Z,47.90
2022-09-21T00:58:08.310Z,47.90
2022-09-21T01:00:35.966Z,48.50
2022-09-21T01:03:03.772Z,47.90
2022-09-21T01:05:33.267Z,47.80
2022-09-21T01:08:02.768Z,47.90
2022-09-21T01:10:31.192Z,47.90
2022-09-21T01:13:06.176Z,47.90
2022-09-21T01:15:38.419Z,47.90
2022-09-21T01:18:10.306Z,47.90
2022-09-21T01:21:18.187Z,47.80
2022-09-21T01:24:29.440Z,47.80
2022-09-21T01:27:25.440Z,47.80
2022-09-21T01:29:55.923Z,47.90
2022-09-21T01:32:24.506Z,47.90
2022-09-21T01:34:55.043Z,47.80
2022-09-21T01:37:24.566Z,47.90
2022-09-21T01:39:54.203Z,47.80
2022-09-21T01:42:21.851Z,47.90
2022-09-21T01:44:49.684Z,47.80
2022-09-21T01:47:18.652Z,47.90
2022-09-21T01:49:47.503Z,47.90
2022-09-21T01:52:16.379Z,47.90
2022-09-21T01:54:46.728Z,47.80
2022-09-21T01:57:17.768Z,47.90
2022-09-21T01:59:49.104Z,47.90
2022-09-21T02:02:20.183Z,47.80
2022-09-21T02:04:47.902Z,47.80
2022-09-21T02:07:17.398Z,47.80
2022-09-21T02:09:46.976Z,47.80
2022-09-21T02:12:18.944Z,47.80
2022-09-21T02:14:47.156Z,47.80
2022-09-21T02:17:25.386Z,47.80
2022-09-21T02:19:56.629Z,47.80
2022-09-21T02:22:30.096Z,47.80
2022-09-21T02:25:02.042Z,48.00
2022-09-21T02:27:32.712Z,48.00
2022-09-21T02:30:04.477Z,48.00
2022-09-21T02:32:35.996Z,48.00
2022-09-21T02:35:04.751Z,48.10
2022-09-21T02:37:35.567Z,48.10
2022-09-21T02:40:05.323Z,48.10
2022-09-21T02:42:35.309Z,48.10
2022-09-21T02:45:10.607Z,48.10
2022-09-21T02:47:40.454Z,48.00
2022-09-21T02:50:10.351Z,48.10
2022-09-21T02:52:38.260Z,48.00
2022-09-21T02:55:06.350Z,48.00
2022-09-21T02:57:33.984Z,48.00
2022-09-21T03:00:01.905Z,48.00
2022-09-21T03:02:38.868Z,48.00
2022-09-21T03:05:07.517Z,48.00
2022-09-21T03:07:35.258Z,48.00
2022-09-21T03:10:02.891Z,48.00
2022-09-21T03:12:30.980Z,48.00
2022-09-21T03:14:58.603Z,48.00
2022-09-21T03:17:26.634Z,48.00
2022-09-21T03:19:55.841Z,48.00
2022-09-21T03:22:24.002Z,48.00
2022-09-21T03:24:51.939Z,48.00
2022-09-21T03:27:20.730Z,47.90
2022-09-21T03:29:48.496Z,48.00
2022-09-21T03:32:16.191Z,47.90
2022-09-21T03:34:43.806Z,47.80
2022-09-21T03:37:12.825Z,47.90
2022-09-21T03:39:40.464Z,47.90
2022-09-21T03:42:09.844Z,47.90
2022-09-21T03:44:38.149Z,47.80
2022-09-21T03:47:06.601Z,47.80
2022-09-21T03:49:34.791Z,47.80
2022-09-21T03:52:03.112Z,47.80
2022-09-21T03:54:32.088Z,47.80
2022-09-21T03:56:59.718Z,47.80
2022-09-21T03:59:27.444Z,47.80
2022-09-21T04:01:55.189Z,47.80
2022-09-21T04:04:22.852Z,47.70
2022-09-21T04:06:50.856Z,47.70
2022-09-21T04:09:18.499Z,47.70
2022-09-21T04:11:48.127Z,47.80
2022-09-21T04:14:15.882Z,47.80
2022-09-21T04:16:43.522Z,47.80
2022-09-21T04:19:11.276Z,47.80
2022-09-21T04:21:39.018Z,47.70
2022-09-21T04:24:06.895Z,47.80
2022-09-21T04:26:35.232Z,47.70
2022-09-21T04:29:05.139Z,47.70
2022-09-21T04:31:32.884Z,47.70
2022-09-21T04:34:00.549Z,47.80
2022-09-21T04:36:33.171Z,47.80
2022-09-21T04:39:03.503Z,47.80
2022-09-21T04:41:31.176Z,47.70
2022-09-21T04:43:58.909Z,47.80
2022-09-21T04:46:27.883Z,47.70
2022-09-21T04:48:55.627Z,47.70
2022-09-21T04:51:23.286Z,47.80
2022-09-21T04:53:51.123Z,47.80
2022-09-21T04:56:18.752Z,47.80
2022-09-21T04:58:46.455Z,47.80
2022-09-21T05:01:14.221Z,47.90
2022-09-21T05:03:43.278Z,47.90
2022-09-21T05:06:13.331Z,47.90
2022-09-21T05:08:58.575Z,48.00
2022-09-21T05:11:26.423Z,48.00
2022-09-21T05:13:54.104Z,48.00
2022-09-21T05:16:21.804Z,48.00
2022-09-21T05:18:54.063Z,48.00
2022-09-21T05:21:21.943Z,48.10
2022-09-21T05:23:49.697Z,48.10
2022-09-21T05:26:17.402Z,48.10
2022-09-21T05:28:45.580Z,48.10
2022-09-21T05:31:20.644Z,48.10
2022-09-21T05:33:52.857Z,48.10
2022-09-21T05:36:29.874Z,48.10
2022-09-21T05:38:58.088Z,48.20
2022-09-21T05:41:26.260Z,48.10
2022-09-21T05:43:54.433Z,48.20
2022-09-21T05:46:30.779Z,48.10
2022-09-21T05:49:00.921Z,48.10
2022-09-21T05:51:31.018Z,48.10
2022-09-21T05:54:00.066Z,48.00
2022-09-21T05:56:35.676Z,48.00
2022-09-21T05:59:08.099Z,48.00
2022-09-21T06:01:42.933Z,48.10
2022-09-21T06:04:13.179Z,48.00
2022-09-21T06:06:40.848Z,48.00
2022-09-21T06:09:08.475Z,48.00
2022-09-21T06:11:36.305Z,48.00
2022-09-21T06:14:03.964Z,48.00
2022-09-21T06:16:38.292Z,48.00
2022-09-21T06:19:06.096Z,47.80
2022-09-21T06:21:35.060Z,47.60
2022-09-21T06:24:03.423Z,47.50
2022-09-21T06:26:31.076Z,47.50
2022-09-21T06:28:58.716Z,47.20
2022-09-21T06:31:27.535Z,47.10
2022-09-21T06:33:55.283Z,47.00
2022-09-21T06:36:23.030Z,47.00
2022-09-21T06:38:52.035Z,47.10
2022-09-21T06:41:21.491Z,47.20
2022-09-21T06:43:49.296Z,47.20
2022-09-21T06:46:16.995Z,47.30
2022-09-21T06:48:44.626Z,47.40
2022-09-21T06:51:12.267Z,47.50
2022-09-21T06:53:39.905Z,47.60
2022-09-21T06:56:09.614Z,47.70
2022-09-21T06:58:37.681Z,47.70
2022-09-21T07:01:07.335Z,47.70
2022-09-21T07:03:35.242Z,47.80
2022-09-21T07:06:02.858Z,47.80
2022-09-21T07:11:19.901Z,47.70
2022-09-21T07:13:47.547Z,47.70
2022-09-21T07:16:16.082Z,47.70
2022-09-21T07:18:44.195Z,47.60
2022-09-21T07:21:12.254Z,47.60
2022-09-21T07:23:40.041Z,47.60
2022-09-21T07:26:09.202Z,47.60
2022-09-21T07:28:38.368Z,47.60
2022-09-21T07:31:09.612Z,47.60
2022-09-21T07:33:37.293Z,47.70
2022-09-21T07:36:10.012Z,47.60
2022-09-21T07:38:38.446Z,47.70
2022-09-21T07:41:06.569Z,47.70
2022-09-21T07:43:34.647Z,47.60
2022-09-21T07:46:03.689Z,47.70
2022-09-21T07:48:31.467Z,47.70
2022-09-21T07:51:04.879Z,47.60
2022-09-21T07:53:32.887Z,47.60
2022-09-21T07:56:04.317Z,47.70
2022-09-21T07:58:58.029Z,47.70
2022-09-21T08:01:27.594Z,47.70
2022-09-21T08:03:56.119Z,47.70
2022-09-21T08:06:24.110Z,47.70
2022-09-21T08:08:57.217Z,47.80
2022-09-21T08:11:25.839Z,47.70
2022-09-21T08:13:53.883Z,47.70
2022-09-21T08:16:21.586Z,47.70
2022-09-21T08:18:51.084Z,47.70
2022-09-21T08:21:18.759Z,47.70
2022-09-21T08:23:48.532Z,47.70
2022-09-21T08:26:18.546Z,47.70
2022-09-21T08:28:49.149Z,47.80
2022-09-21T08:31:17.281Z,47.90
2022-09-21T08:33:44.988Z,47.90
2022-09-21T08:36:13.979Z,48.00
2022-09-21T08:38:41.623Z,48.00
2022-09-21T08:41:16.257Z,48.00
2022-09-21T08:43:44.802Z,47.90
2022-09-21T08:46:14.058Z,47.90
2022-09-21T08:48:42.912Z,47.90
2022-09-21T08:51:12.068Z,47.80
2022-09-21T08:53:42.105Z,47.80
2022-09-21T08:56:11.309Z,47.70
2022-09-21T08:58:40.533Z,47.70
2022-09-21T09:01:16.492Z,47.50
2022-09-21T09:03:54.919Z,47.50
2022-09-21T09:06:26.880Z,47.40
2022-09-21T09:09:32.398Z,47.40
2022-09-21T09:12:11.048Z,47.30
2022-09-21T09:15:05.032Z,47.30
2022-09-21T09:17:37.259Z,47.20
2022-09-21T09:20:07.185Z,47.20
2022-09-21T09:22:37.742Z,47.10
2022-09-21T09:25:08.126Z,47.00
2022-09-21T09:27:37.492Z,46.90
2022-09-21T09:30:06.335Z,46.90
2022-09-21T09:32:41.039Z,46.80
2022-09-21T09:35:17.231Z,46.90
2022-09-21T09:37:44.891Z,46.70
2022-09-21T09:40:14.369Z,46.70
2022-09-21T09:42:47.324Z,46.70
2022-09-21T09:45:26.852Z,46.60
2022-09-21T09:48:02.510Z,46.50
2022-09-21T09:50:31.025Z,46.50
2022-09-21T09:53:00.824Z,46.50
2022-09-21T09:55:35.712Z,46.50
2022-09-21T09:58:03.388Z,46.40
2022-09-21T10:00:31.102Z,46.50
2022-09-21T10:02:59.404Z,46.50
2022-09-21T10:05:32.959Z,46.40
2022-09-21T10:08:00.696Z,46.30
2022-09-21T10:10:34.573Z,46.40
2022-09-21T10:13:13.510Z,46.20
2022-09-21T10:15:43.642Z,46.20
2022-09-21T10:18:17.680Z,46.40
2022-09-21T10:20:54.117Z,46.40
2022-09-21T10:23:21.776Z,46.40
2022-09-21T10:26:02.588Z,46.50
2022-09-21T10:28:30.515Z,46.30
2022-09-21T10:31:19.083Z,46.30
2022-09-21T10:33:52.460Z,46.30
2022-09-21T10:36:28.028Z,46.20
2022-09-21T10:38:55.750Z,46.10
2022-09-21T10:41:24.809Z,46.20
2022-09-21T10:43:54.569Z,46.20
2022-09-21T10:46:33.961Z,46.20
2022-09-21T10:49:01.948Z,46.00
2022-09-21T10:51:30.439Z,46.20
2022-09-21T10:53:58.086Z,46.10
2022-09-21T10:56:27.100Z,46.10
2022-09-21T10:59:22.234Z,46.10
2022-09-21T11:01:51.042Z,46.00
2022-09-21T11:04:23.622Z,46.00
2022-09-21T11:06:53.365Z,46.00
2022-09-21T11:09:23.175Z,46.00
2022-09-21T11:11:54.903Z,45.90
2022-09-21T11:14:31.262Z,45.90
2022-09-21T11:17:01.162Z,45.80
2022-09-21T11:19:31.835Z,45.90
2022-09-21T11:22:02.639Z,45.80
2022-09-21T11:24:34.226Z,45.80
2022-09-21T11:27:04.868Z,45.70
2022-09-21T11:29:37.642Z,45.70
2022-09-21T11:32:21.745Z,45.60
2022-09-21T11:35:12.306Z,45.60
2022-09-21T11:37:51.192Z,45.40
2022-09-21T11:40:33.096Z,44.80
2022-09-21T11:43:09.363Z,44.70
2022-09-21T11:45:50.623Z,45.50
2022-09-21T11:48:22.580Z,45.50
2022-09-21T11:50:59.211Z,45.40
2022-09-21T11:53:33.410Z,46.10
2022-09-21T11:56:34.007Z,46.00
2022-09-21T11:59:09.076Z,45.70
2022-09-21T12:01:50.001Z,44.80
2022-09-21T12:04:25.046Z,43.60
2022-09-21T12:07:00.190Z,42.00
2022-09-21T12:09:42.995Z,40.60
2022-09-21T12:12:12.369Z,39.60
2022-09-21T12:14:46.096Z,39.80
2022-09-21T12:17:16.800Z,39.30
2022-09-21T12:19:48.363Z,38.40
2022-09-21T12:22:18.318Z,38.60
2022-09-21T12:24:47.608Z,37.70
2022-09-21T12:27:22.857Z,37.50
2022-09-21T12:29:53.292Z,37.00
2022-09-21T12:32:23.710Z,38.00
2022-09-21T12:34:54.287Z,37.80
2022-09-21T12:37:24.668Z,37.50
2022-09-21T12:39:55.031Z,37.50
2022-09-21T12:42:28.837Z,36.90
2022-09-21T12:45:00.799Z,37.00
2022-09-21T12:47:33.598Z,37.40
2022-09-21T12:50:05.130Z,36.70
2022-09-21T12:52:32.911Z,36.20
2022-09-21T12:55:03.698Z,36.60
2022-09-21T12:58:10.961Z,36.70
2022-09-21T13:00:24.249Z,36.90
2022-09-21T13:02:54.366Z,36.60
2022-09-21T13:05:24.823Z,36.50
2022-09-21T13:08:00.347Z,36.70
2022-09-21T13:10:40.792Z,36.10
2022-09-21T13:13:14.440Z,35.60
2022-09-21T13:15:46.187Z,35.80
2022-09-21T13:18:19.125Z,36.50
2022-09-21T13:20:46.830Z,36.30
2022-09-21T13:23:17.000Z,37.50
2022-09-21T13:25:48.740Z,38.30
2022-09-21T13:28:24.007Z,38.20
2022-09-21T13:31:41.399Z,39.00
2022-09-21T13:34:27.392Z,39.00
2022-09-21T13:37:34.945Z,39.80
2022-09-21T13:40:39.648Z,39.40
2022-09-21T13:43:20.913Z,39.70
2022-09-21T13:45:53.672Z,40.30
2022-09-21T13:48:25.017Z,40.50
2022-09-21T13:50:52.683Z,40.40
2022-09-21T13:53:21.125Z,40.70
2022-09-21T13:55:50.748Z,40.80
2022-09-21T13:58:21.267Z,40.80
2022-09-21T14:00:54.012Z,40.80
2022-09-21T14:03:24.160Z,40.90
2022-09-21T14:05:52.834Z,40.90
2022-09-21T14:08:26.449Z,40.90
2022-09-21T14:10:56.223Z,41.20
2022-09-21T14:13:27.728Z,41.40
2022-09-21T14:15:56.784Z,41.30
2022-09-21T14:18:46.850Z,41.50
2022-09-21T14:21:19.015Z,41.60
2022-09-21T14:24:29.932Z,41.70
2022-09-21T14:27:03.562Z,42.10
2022-09-21T14:29:38.175Z,41.90
2022-09-21T14:32:11.671Z,42.10
2022-09-21T14:34:40.132Z,42.10
2022-09-21T14:37:25.659Z,42.20
2022-09-21T14:39:54.517Z,42.30
2022-09-21T14:42:24.653Z,41.80
2022-09-21T14:44:52.297Z,42.10
2022-09-21T14:47:34.145Z,42.50
2022-09-21T14:50:29.927Z,42.60
2022-09-21T14:53:35.580Z,42.60
2022-09-21T14:56:22.778Z,43.40
2022-09-21T14:59:07.568Z,43.30
2022-09-21T15:01:41.271Z,43.30
2022-09-21T15:04:33.280Z,43.20
2022-09-21T15:07:25.237Z,42.20
2022-09-21T15:10:37.122Z,43.20
2022-09-21T15:13:11.719Z,42.50
2022-09-21T15:15:41.906Z,43.10
2022-09-21T15:18:20.291Z,43.50
2022-09-21T15:21:01.152Z,43.90
2022-09-21T15:23:29.269Z,44.10
2022-09-21T15:25:59.168Z,44.20
2022-09-21T15:28:57.873Z,44.30
2022-09-21T15:31:23.224Z,44.40
2022-09-21T15:33:52.187Z,44.50
2022-09-21T15:36:25.581Z,44.60
2022-09-21T15:38:56.468Z,44.60
2022-09-21T15:41:41.691Z,44.50
2022-09-21T15:44:19.156Z,44.70
2022-09-21T15:46:49.395Z,44.60
2022-09-21T15:49:21.828Z,44.40
2022-09-21T15:51:53.245Z,44.40
2022-09-21T15:54:26.975Z,42.10
2022-09-21T15:56:55.581Z,37.30
2022-09-21T15:59:23.328Z,36.90
2022-09-21T16:01:52.140Z,35.90
2022-09-21T16:04:21.800Z,36.00
2022-09-21T16:07:03.212Z,37.40
2022-09-21T16:09:44.939Z,37.90
2022-09-21T16:12:38.695Z,38.40
2022-09-21T16:15:16.967Z,39.10
2022-09-21T16:18:02.684Z,39.30
2022-09-21T16:20:40.438Z,39.50
2022-09-21T16:23:13.800Z,39.80
2022-09-21T16:25:42.914Z,40.10
2022-09-21T16:28:27.769Z,39.80
2022-09-21T16:30:58.889Z,40.30
2022-09-21T16:33:43.860Z,40.40
2022-09-21T16:36:43.056Z,40.40
2022-09-21T16:39:15.554Z,40.60
2022-09-21T16:41:55.265Z,40.80
2022-09-21T16:44:25.955Z,40.90
2022-09-21T16:46:58.412Z,40.90
2022-09-21T16:49:30.387Z,40.80
2022-09-21T16:51:59.193Z,40.90
2022-09-21T16:54:28.456Z,41.20
2022-09-21T16:56:57.489Z,40.70
2022-09-21T16:59:25.347Z,40.90
2022-09-21T17:01:56.288Z,41.10
2022-09-21T17:04:25.335Z,41.10
2022-09-21T17:06:54.004Z,41.30
2022-09-21T17:09:28.941Z,41.70
2022-09-21T17:12:01.243Z,41.90
2022-09-21T17:14:29.763Z,42.10
2022-09-21T17:16:58.394Z,42.40
2022-09-21T17:19:26.374Z,42.40
2022-09-21T17:21:54.145Z,42.30
2022-09-21T17:24:45.820Z,42.50
2022-09-21T17:27:10.771Z,42.50
2022-09-21T17:29:41.043Z,42.60
2022-09-21T17:32:10.902Z,42.60
2022-09-21T17:34:38.570Z,42.60
2022-09-21T17:37:07.203Z,42.80
2022-09-21T17:39:34.867Z,42.80
2022-09-21T17:42:03.986Z,42.80
2022-09-21T17:44:46.024Z,43.00
2022-09-21T17:47:18.732Z,43.10
2022-09-21T17:49:46.836Z,43.10
2022-09-21T17:52:34.117Z,43.10
2022-09-21T17:55:05.804Z,43.10
2022-09-21T17:57:41.164Z,43.20
2022-09-21T18:00:20.732Z,43.30
2022-09-21T18:02:48.836Z,43.40
2022-09-21T18:05:22.771Z,43.40
2022-09-21T18:07:51.535Z,43.40
2022-09-21T18:10:20.191Z,43.50
2022-09-21T18:12:56.065Z,43.50
2022-09-21T18:15:27.595Z,43.60
2022-09-21T18:18:02.996Z,43.60
2022-09-21T18:20:39.323Z,43.70
2022-09-21T18:23:11.698Z,43.70
2022-09-21T18:25:47.487Z,43.70
2022-09-21T18:28:18.232Z,43.70
2022-09-21T18:30:51.155Z,43.70
2022-09-21T18:33:23.706Z,43.80
2022-09-21T18:36:01.211Z,43.90
2022-09-21T18:38:32.355Z,43.80
2022-09-21T18:41:06.471Z,43.90
2022-09-21T18:43:40.683Z,44.00
2022-09-21T18:46:14.698Z,44.00
2022-09-21T18:48:55.080Z,44.00
2022-09-21T18:51:24.897Z,44.10
2022-09-21T18:53:55.795Z,44.10
2022-09-21T18:56:24.180Z,44.20
2022-09-21T18:58:52.598Z,44.30
2022-09-21T19:01:23.670Z,44.30
2022-09-21T19:03:52.107Z,44.50
2022-09-21T19:06:27.240Z,44.50
2022-09-21T19:08:59.426Z,44.60
2022-09-21T19:11:32.363Z,44.60
2022-09-21T19:14:03.000Z,44.60
2022-09-21T19:16:33.604Z,44.60
2022-09-21T19:19:08.693Z,44.60
2022-09-21T19:21:40.535Z,44.60
2022-09-21T19:24:13.225Z,44.70
2022-09-21T19:26:46.660Z,44.70
2022-09-21T19:29:28.547Z,44.80
2022-09-21T19:31:57.789Z,44.80
2022-09-21T19:34:25.758Z,44.90
2022-09-21T19:36:57.013Z,44.90
2022-09-21T19:39:25.280Z,44.90
2022-09-21T19:42:00.362Z,44.90
2022-09-21T19:44:39.060Z,44.90
2022-09-21T19:47:12.558Z,45.00
2022-09-21T19:49:46.086Z,45.00
2022-09-21T19:52:16.292Z,45.10
2022-09-21T19:55:02.041Z,45.00
2022-09-21T19:57:47.440Z,45.10
2022-09-21T20:00:17.002Z,45.10
2022-09-21T20:02:53.145Z,45.20
2022-09-21T20:05:23.176Z,45.20
2022-09-21T20:07:54.240Z,45.20
2022-09-21T20:10:42.045Z,45.30
2022-09-21T20:13:17.134Z,45.40
2022-09-21T20:15:48.132Z,45.30
2022-09-21T20:18:20.167Z,45.30
2022-09-21T20:20:48.323Z,45.30
2022-09-21T20:23:16.504Z,45.30
2022-09-21T20:25:48.305Z,45.20
2022-09-21T20:28:16.810Z,45.30
2022-09-21T20:30:44.493Z,45.30
2022-09-21T20:33:14.662Z,45.30
2022-09-21T20:35:43.954Z,45.30
2022-09-21T20:38:11.745Z,45.40
2022-09-21T20:40:39.558Z,45.30
2022-09-21T20:43:07.914Z,45.40
2022-09-21T20:45:35.645Z,45.40
2022-09-21T20:48:13.039Z,45.40
2022-09-21T20:50:43.024Z,45.40
2022-09-21T20:53:10.834Z,45.50
2022-09-21T20:55:38.594Z,45.50
2022-09-21T20:58:06.608Z,45.50
2022-09-21T21:00:34.483Z,45.50
2022-09-21T21:03:02.152Z,45.50
2022-09-21T21:05:29.807Z,45.60
2022-09-21T21:07:58.762Z,45.60
2022-09-21T21:10:26.512Z,45.60
2022-09-21T21:12:54.943Z,45.60
2022-09-21T21:15:22.712Z,45.70
2022-09-21T21:17:50.374Z,45.70
2022-09-21T21:20:18.253Z,46.40
2022-09-21T21:22:46.119Z,45.70
2022-09-21T21:25:15.280Z,45.70
2022-09-21T21:27:42.954Z,45.80
2022-09-21T21:30:13.474Z,45.80
2022-09-21T21:32:42.647Z,45.90
2022-09-21T21:35:10.600Z,46.60
2022-09-21T21:37:40.236Z,46.60
2022-09-21T21:40:09.661Z,46.00
2022-09-21T21:42:38.735Z,46.00
2022-09-21T21:45:07.471Z,46.00
2022-09-21T21:47:40.290Z,46.00
2022-09-21T21:50:09.758Z,46.10
2022-09-21T21:52:37.453Z,46.20
2022-09-21T21:55:05.694Z,46.10
2022-09-21T21:57:33.433Z,46.20
2022-09-21T22:00:02.844Z,46.20
2022-09-21T22:02:32.724Z,46.20
2022-09-21T22:05:00.618Z,46.20
2022-09-21T22:07:28.274Z,46.20
2022-09-21T22:09:55.991Z,46.20
2022-09-21T22:12:23.684Z,46.20
2022-09-21T22:14:51.343Z,46.20
2022-09-21T22:17:20.434Z,46.20
2022-09-21T22:19:48.113Z,46.20
2022-09-21T22:22:15.761Z,46.30
2022-09-21T22:24:43.400Z,46.30
2022-09-21T22:27:11.056Z,46.40
2022-09-21T22:29:40.566Z,46.30
2022-09-21T22:32:08.256Z,46.40
2022-09-21T22:34:37.244Z,46.40
2022-09-21T22:37:04.884Z,46.40
2022-09-21T22:39:32.568Z,46.40
2022-09-21T22:42:00.594Z,46.40
2022-09-21T22:44:28.473Z,46.40
2022-09-21T22:46:56.151Z,46.40
2022-09-21T22:49:23.994Z,46.40
2022-09-21T22:51:52.964Z,46.40
2022-09-21T22:54:20.587Z,46.50
2022-09-21T22:56:48.220Z,46.50
2022-09-21T22:59:15.865Z,46.50
2022-09-21T23:01:43.515Z,46.40
2022-09-21T23:04:12.749Z,46.40
2022-09-21T23:06:41.521Z,46.50
2022-09-21T23:09:13.166Z,46.50
2022-09-21T23:11:42.748Z,46.50
2022-09-21T23:14:11.096Z,46.50
2022-09-21T23:16:38.816Z,46.50
2022-09-21T23:19:07.016Z,46.50
2022-09-21T23:21:34.677Z,46.50
2022-09-21T23:24:03.014Z,46.50
2022-09-21T23:26:33.868Z,46.50
2022-09-21T23:29:02.745Z,46.50
2022-09-21T23:31:31.401Z,46.50
2022-09-21T23:33:59.932Z,46.50
2022-09-21T23:36:28.351Z,46.40
2022-09-21T23:38:56.024Z,46.50
2022-09-21T23:41:24.731Z,46.50
2022-09-21T23:43:53.754Z,46.40
2022-09-21T23:46:22.373Z,46.40
2022-09-21T23:48:50.270Z,46.40
2022-09-21T23:51:18.000Z,46.40
2022-09-21T23:53:45.886Z,46.40
2022-09-21T23:56:14.897Z,46.40
2022-09-21T23:58:42.640Z,46.40
